sensor_id;sensor_type;location;lat;lon;timestamp;temperature;humidity
57719;DHT22;43561;50.090;18.522;2023-03-14T00:03:13;9.90;89.70
57719;DHT22;43561;50.090;18.522;2023-03-14T00:13:15;10.10;89.20
57719;DHT22;43561;50.090;18.522;2023-03-14T00:23:17;9.90;90.40
57719;DHT22;43561;50.090;18.522;2023-03-14T00:33:19;9.70;91.20
57719;DHT22;43561;50.090;18.522;2023-03-14T00:43:21;9.40;92.00
57719;DHT22;43561;50.090;18.522;2023-03-14T00:53:23;9.20;93.00
57719;DHT22;43561;50.090;18.522;2023-03-14T01:03:25;8.90;96.10
57719;DHT22;43561;50.090;18.522;2023-03-14T01:13:27;9.00;96.30
57719;DHT22;43561;50.090;18.522;2023-03-14T01:23:29;9.30;95.60
57719;DHT22;43561;50.090;18.522;2023-03-14T01:33:31;9.40;94.80
57719;DHT22;43561;50.090;18.522;2023-03-14T01:43:33;9.70;94.00
57719;DHT22;43561;50.090;18.522;2023-03-14T01:53:36;9.40;95.10
57719;DHT22;43561;50.090;18.522;2023-03-14T02:15:03;9.30;95.40
57719;DHT22;43561;50.090;18.522;2023-03-14T02:35:58;9.50;94.20
57719;DHT22;43561;50.090;18.522;2023-03-14T02:46:01;8.80;97.50
57719;DHT22;43561;50.090;18.522;2023-03-14T02:56:05;8.40;99.90
57719;DHT22;43561;50.090;18.522;2023-03-14T03:06:08;8.90;98.70
57719;DHT22;43561;50.090;18.522;2023-03-14T03:16:11;9.00;98.50
57719;DHT22;43561;50.090;18.522;2023-03-14T03:26:13;9.00;99.10
57719;DHT22;43561;50.090;18.522;2023-03-14T03:36:15;8.60;99.90
57719;DHT22;43561;50.090;18.522;2023-03-14T03:46:17;8.60;99.90
57719;DHT22;43561;50.090;18.522;2023-03-14T03:56:19;8.30;99.90
57719;DHT22;43561;50.090;18.522;2023-03-14T04:06:21;8.10;99.90
57719;DHT22;43561;50.090;18.522;2023-03-14T04:16:26;8.20;99.90
57719;DHT22;43561;50.090;18.522;2023-03-14T04:26:36;8.20;99.90
57719;DHT22;43561;50.090;18.522;2023-03-14T04:36:38;8.00;99.90
57719;DHT22;43561;50.090;18.522;2023-03-14T04:46:46;7.80;99.90
57719;DHT22;43561;50.090;18.522;2023-03-14T04:56:48;7.70;99.90
57719;DHT22;43561;50.090;18.522;2023-03-14T05:06:50;7.50;99.90
57719;DHT22;43561;50.090;18.522;2023-03-14T05:17:32;8.20;99.90
57719;DHT22;43561;50.090;18.522;2023-03-14T05:27:46;8.40;99.90
57719;DHT22;43561;50.090;18.522;2023-03-14T05:38:13;8.50;99.90
57719;DHT22;43561;50.090;18.522;2023-03-14T05:48:33;8.90;99.70
57719;DHT22;43561;50.090;18.522;2023-03-14T05:58:57;8.90;99.50
57719;DHT22;43561;50.090;18.522;2023-03-14T06:09:22;8.90;99.60
57719;DHT22;43561;50.090;18.522;2023-03-14T06:19:26;9.00;99.40
57719;DHT22;43561;50.090;18.522;2023-03-14T06:29:29;9.30;99.00
57719;DHT22;43561;50.090;18.522;2023-03-14T06:39:31;9.60;98.60
57719;DHT22;43561;50.090;18.522;2023-03-14T06:49:40;9.90;97.80
57719;DHT22;43561;50.090;18.522;2023-03-14T06:59:42;10.00;96.70
57719;DHT22;43561;50.090;18.522;2023-03-14T07:09:45;10.40;95.90
57719;DHT22;43561;50.090;18.522;2023-03-14T07:19:47;10.70;94.80
57719;DHT22;43561;50.090;18.522;2023-03-14T07:29:49;10.90;94.90
57719;DHT22;43561;50.090;18.522;2023-03-14T07:39:52;11.30;93.50
57719;DHT22;43561;50.090;18.522;2023-03-14T07:49:59;12.30;91.70
57719;DHT22;43561;50.090;18.522;2023-03-14T08:00:01;12.50;88.00
57719;DHT22;43561;50.090;18.522;2023-03-14T08:10:03;13.30;84.20
57719;DHT22;43561;50.090;18.522;2023-03-14T08:20:06;14.20;77.70
57719;DHT22;43561;50.090;18.522;2023-03-14T08:30:11;15.00;73.40
57719;DHT22;43561;50.090;18.522;2023-03-14T08:40:13;13.80;75.10
57719;DHT22;43561;50.090;18.522;2023-03-14T08:50:15;13.10;77.10
57719;DHT22;43561;50.090;18.522;2023-03-14T09:00:18;13.20;78.30
57719;DHT22;43561;50.090;18.522;2023-03-14T09:10:20;13.80;77.00
57719;DHT22;43561;50.090;18.522;2023-03-14T09:20:22;13.40;77.50
57719;DHT22;43561;50.090;18.522;2023-03-14T09:30:24;13.40;77.10
57719;DHT22;43561;50.090;18.522;2023-03-14T09:40:31;13.60;76.80
57719;DHT22;43561;50.090;18.522;2023-03-14T09:50:40;14.10;77.20
57719;DHT22;43561;50.090;18.522;2023-03-14T10:00:43;13.80;77.40
57719;DHT22;43561;50.090;18.522;2023-03-14T10:10:45;14.30;76.90
57719;DHT22;43561;50.090;18.522;2023-03-14T10:20:48;13.40;80.70
57719;DHT22;43561;50.090;18.522;2023-03-14T10:30:50;13.00;83.50
57719;DHT22;43561;50.090;18.522;2023-03-14T10:40:53;12.70;85.90
57719;DHT22;43561;50.090;18.522;2023-03-14T11:11:27;12.00;96.40
57719;DHT22;43561;50.090;18.522;2023-03-14T11:22:05;12.00;96.80
57719;DHT22;43561;50.090;18.522;2023-03-14T11:32:19;11.70;98.10
57719;DHT22;43561;50.090;18.522;2023-03-14T11:42:26;11.70;99.20
57719;DHT22;43561;50.090;18.522;2023-03-14T12:13:16;11.70;99.90
57719;DHT22;43561;50.090;18.522;2023-03-14T12:23:18;11.60;99.90
57719;DHT22;43561;50.090;18.522;2023-03-14T12:33:27;11.70;99.90
57719;DHT22;43561;50.090;18.522;2023-03-14T12:43:33;11.60;99.90
57719;DHT22;43561;50.090;18.522;2023-03-14T13:04:04;11.10;99.90
57719;DHT22;43561;50.090;18.522;2023-03-14T13:14:10;11.00;99.90
57719;DHT22;43561;50.090;18.522;2023-03-14T13:24:25;10.90;99.90
57719;DHT22;43561;50.090;18.522;2023-03-14T13:34:32;10.70;99.90
57719;DHT22;43561;50.090;18.522;2023-03-14T13:44:39;10.50;99.90
57719;DHT22;43561;50.090;18.522;2023-03-14T13:54:41;10.50;99.90
57719;DHT22;43561;50.090;18.522;2023-03-14T14:04:43;10.40;99.90
57719;DHT22;43561;50.090;18.522;2023-03-14T14:25:17;10.30;99.90
57719;DHT22;43561;50.090;18.522;2023-03-14T14:35:52;10.30;99.90
57719;DHT22;43561;50.090;18.522;2023-03-14T14:45:55;10.30;99.90
57719;DHT22;43561;50.090;18.522;2023-03-14T14:56:03;10.30;99.90
57719;DHT22;43561;50.090;18.522;2023-03-14T15:06:05;10.30;99.90
57719;DHT22;43561;50.090;18.522;2023-03-14T15:16:11;10.30;99.90
57719;DHT22;43561;50.090;18.522;2023-03-14T15:26:17;10.30;99.90
57719;DHT22;43561;50.090;18.522;2023-03-14T15:36:23;10.50;99.90
57719;DHT22;43561;50.090;18.522;2023-03-14T15:46:25;10.40;99.90
57719;DHT22;43561;50.090;18.522;2023-03-14T15:56:29;10.40;99.90
57719;DHT22;43561;50.090;18.522;2023-03-14T16:06:31;10.40;99.90
57719;DHT22;43561;50.090;18.522;2023-03-14T16:16:33;10.40;99.90
57719;DHT22;43561;50.090;18.522;2023-03-14T16:26:35;10.30;99.90
57719;DHT22;43561;50.090;18.522;2023-03-14T16:36:37;10.30;99.90
57719;DHT22;43561;50.090;18.522;2023-03-14T16:46:39;10.20;99.90
57719;DHT22;43561;50.090;18.522;2023-03-14T16:56:41;10.10;99.90
57719;DHT22;43561;50.090;18.522;2023-03-14T17:06:43;10.10;99.90
57719;DHT22;43561;50.090;18.522;2023-03-14T17:16:45;10.10;99.90
57719;DHT22;43561;50.090;18.522;2023-03-14T17:26:47;9.90;99.90
57719;DHT22;43561;50.090;18.522;2023-03-14T17:36:50;9.90;99.90
57719;DHT22;43561;50.090;18.522;2023-03-14T17:46:52;9.80;99.90
57719;DHT22;43561;50.090;18.522;2023-03-14T17:56:54;9.70;99.90
57719;DHT22;43561;50.090;18.522;2023-03-14T18:06:58;9.70;99.90
57719;DHT22;43561;50.090;18.522;2023-03-14T18:17:00;9.70;99.90
57719;DHT22;43561;50.090;18.522;2023-03-14T18:27:02;9.60;99.90
57719;DHT22;43561;50.090;18.522;2023-03-14T18:37:04;9.70;99.90
57719;DHT22;43561;50.090;18.522;2023-03-14T18:47:06;9.60;99.90
57719;DHT22;43561;50.090;18.522;2023-03-14T18:57:08;9.50;99.90
57719;DHT22;43561;50.090;18.522;2023-03-14T19:07:10;9.30;99.90
57719;DHT22;43561;50.090;18.522;2023-03-14T19:17:12;9.20;99.90
57719;DHT22;43561;50.090;18.522;2023-03-14T19:27:14;9.00;99.90
57719;DHT22;43561;50.090;18.522;2023-03-14T19:37:16;8.90;99.90
57719;DHT22;43561;50.090;18.522;2023-03-14T19:47:18;8.80;99.90
57719;DHT22;43561;50.090;18.522;2023-03-14T19:57:19;8.80;99.90
57719;DHT22;43561;50.090;18.522;2023-03-14T20:07:21;8.70;99.90
57719;DHT22;43561;50.090;18.522;2023-03-14T20:17:23;8.70;99.90
57719;DHT22;43561;50.090;18.522;2023-03-14T20:27:25;8.70;99.90
57719;DHT22;43561;50.090;18.522;2023-03-14T20:37:28;8.60;99.90
57719;DHT22;43561;50.090;18.522;2023-03-14T20:47:30;8.50;99.90
57719;DHT22;43561;50.090;18.522;2023-03-14T20:57:31;8.50;99.90
57719;DHT22;43561;50.090;18.522;2023-03-14T21:07:34;8.40;99.90
57719;DHT22;43561;50.090;18.522;2023-03-14T21:17:35;8.40;99.90
57719;DHT22;43561;50.090;18.522;2023-03-14T21:27:40;8.30;99.90
57719;DHT22;43561;50.090;18.522;2023-03-14T21:37:42;8.30;99.90
57719;DHT22;43561;50.090;18.522;2023-03-14T21:47:44;8.40;99.90
57719;DHT22;43561;50.090;18.522;2023-03-14T21:57:47;8.40;99.90
57719;DHT22;43561;50.090;18.522;2023-03-14T22:07:49;8.40;99.90
57719;DHT22;43561;50.090;18.522;2023-03-14T22:17:51;8.40;99.90
57719;DHT22;43561;50.090;18.522;2023-03-14T22:27:53;8.40;99.90
57719;DHT22;43561;50.090;18.522;2023-03-14T22:37:55;6.90;99.90
57719;DHT22;43561;50.090;18.522;2023-03-14T22:47:57;6.60;99.90
57719;DHT22;43561;50.090;18.522;2023-03-14T22:57:59;6.30;99.90
57719;DHT22;43561;50.090;18.522;2023-03-14T23:08:01;5.40;99.90
57719;DHT22;43561;50.090;18.522;2023-03-14T23:18:03;4.80;99.90
57719;DHT22;43561;50.090;18.522;2023-03-14T23:28:05;4.20;99.90
57719;DHT22;43561;50.090;18.522;2023-03-14T23:38:07;4.00;99.90
57719;DHT22;43561;50.090;18.522;2023-03-14T23:48:09;3.70;99.90
57719;DHT22;43561;50.090;18.522;2023-03-14T23:58:11;3.70;99.90
